Time;durP1;ratioP1;P1;durP2;ratioP2;P2;SDS_P1;SDS_P2;PMS_P1;PMS_P2;Temp;Humidity;BMP_temperature;BMP_pressure;BME280_temperature;BME280_humidity;BME280_pressure;Samples;Min_cycle;Max_cycle;Signal;HPM_P1;HPM_P2
2020/12/03 00:00:07;;;;;;;;;;;;;;;-3.17;100.00;100704.28;5093474;28;19924;-67
2020/12/03 00:02:33;;;;;;;;;;;;;;;-3.15;100.00;100707.78;5093865;28;20416;-67
2020/12/03 00:04:59;;;;;;;;;;;;;;;-3.16;100.00;100718.44;5093714;28;20014;-67
2020/12/03 00:07:25;;;;;;;;;;;;;;;-3.15;100.00;100709.53;5093476;28;19924;-68
2020/12/03 00:09:50;;;;;;;;;;;;;;;-3.13;100.00;100713.03;5093693;28;19924;-67
2020/12/03 00:12:20;;;;;;;;;;;;;;;-3.13;100.00;100707.72;5093542;28;19928;-67
2020/12/03 00:14:45;;;;;;;;;;;;;;;-3.16;100.00;100705.16;5093561;28;19924;-67
2020/12/03 00:17:11;;;;;;;;;;;;;;;-3.16;100.00;100708.69;5092573;28;19974;-67
2020/12/03 00:19:37;;;;;;;;;;;;;;;-3.15;100.00;100704.22;5093531;28;20023;-67
2020/12/03 00:22:06;;;;;;;;;;;;;;;-3.14;100.00;100708.63;5093430;28;19928;-67
2020/12/03 00:24:32;;;;;;;;;;;;;;;-3.14;100.00;100703.31;5093474;28;19975;-67
2020/12/03 00:27:05;;;;;;;;;;;;;;;-3.18;100.00;100697.22;5091893;28;20393;-67
2020/12/03 00:29:31;;;;;;;;;;;;;;;-3.16;100.00;100705.16;5093444;28;20014;-67
2020/12/03 00:31:57;;;;;;;;;;;;;;;-3.18;100.00;100705.19;5092819;28;19924;-67
2020/12/03 00:34:23;;;;;;;;;;;;;;;-3.17;100.00;100696.31;5092936;28;19924;-67
2020/12/03 00:36:48;;;;;;;;;;;;;;;-3.16;100.00;100689.22;5093059;28;19924;-67
2020/12/03 00:39:15;;;;;;;;;;;;;;;-3.17;100.00;100687.47;5093043;28;20483;-67
2020/12/03 00:41:46;;;;;;;;;;;;;;;-3.17;100.00;100693.66;5093349;28;20027;-67
2020/12/03 00:44:12;;;;;;;;;;;;;;;-3.15;100.00;100696.25;5093097;28;19924;-67
2020/12/03 00:46:38;;;;;;;;;;;;;;;-3.17;100.00;100706.06;5091602;28;19924;-67
2020/12/03 00:49:04;;;;;;;;;;;;;;;-3.13;100.00;100699.75;5092747;28;20356;-67
2020/12/03 00:51:30;;;;;;;;;;;;;;;-3.17;100.00;100693.66;5092678;28;19935;-67
2020/12/03 00:53:56;;;;;;;;;;;;;;;-3.11;100.00;100701.47;5092808;28;19924;-68
2020/12/03 00:56:23;;;;;;;;;;;;;;;-3.09;100.00;100689.00;5091545;28;19930;-67
2020/12/03 00:58:50;;;;;;;;;;;;;;;-3.07;100.00;100703.13;5091596;28;19924;-68
2020/12/03 01:01:17;;;;;;;;;;;;;;;-3.12;100.00;100688.25;5092574;28;19935;-67
2020/12/03 01:03:44;;;;;;;;;;;;;;;-3.09;100.00;100690.81;5092886;28;20368;-67
2020/12/03 01:06:10;;;;;;;;;;;;;;;-3.07;100.00;100692.53;5091959;28;19931;-67
2020/12/03 01:08:36;;;;;;;;;;;;;;;-3.08;100.00;100684.59;5092548;28;19924;-67
2020/12/03 01:11:03;;;;;;;;;;;;;;;-3.10;100.00;100689.06;5091199;28;20019;-67
2020/12/03 01:13:28;;;;;;;;;;;;;;;-3.14;100.00;100674.13;5092483;28;20027;-67
2020/12/03 01:15:56;;;;;;;;;;;;;;;-3.16;100.00;100682.13;5092273;28;19924;-67
2020/12/03 01:18:22;;;;;;;;;;;;;;;-3.17;100.00;100663.56;5091499;28;19928;-67
2020/12/03 01:20:49;;;;;;;;;;;;;;;-3.25;100.00;100659.31;5092342;28;20407;-67
2020/12/03 01:23:14;;;;;;;;;;;;;;;-3.30;100.00;100653.28;5092246;28;19924;-67
2020/12/03 01:25:40;;;;;;;;;;;;;;;-3.30;100.00;100649.72;5092317;28;20412;-67
2020/12/03 01:28:06;;;;;;;;;;;;;;;-3.30;100.00;100642.66;5092073;28;19924;-67
2020/12/03 01:30:32;;;;;;;;;;;;;;;-3.31;100.00;100640.91;5090258;28;19924;-67
2020/12/03 01:32:58;;;;;;;;;;;;;;;-3.33;100.00;100644.50;5092143;28;19930;-67
2020/12/03 01:35:23;;;;;;;;;;;;;;;-3.32;100.00;100641.81;5092316;28;19928;-67
2020/12/03 01:37:51;;;;;;;;;;;;;;;-3.31;100.00;100630.28;5092037;28;19924;-68
2020/12/03 01:40:18;;;;;;;;;;;;;;;-3.32;100.00;100622.34;5091973;28;19928;-67
2020/12/03 01:42:43;;;;;;;;;;;;;;;-3.35;100.00;100618.00;5092212;28;20014;-67
2020/12/03 01:45:28;;;;;;;;;;;;;;;-3.32;100.00;100609.09;5091803;28;19924;-67
2020/12/03 01:47:54;;;;;;;;;;;;;;;-3.34;100.00;100601.16;5092012;28;20023;-68
2020/12/03 01:50:20;;;;;;;;;;;;;;;-3.33;100.00;100602.88;5091933;28;20453;-70
2020/12/03 01:52:45;;;;;;;;;;;;;;;-3.32;100.00;100609.94;5091987;28;19924;-67
2020/12/03 01:55:12;;;;;;;;;;;;;;;-3.42;100.00;100601.34;5090584;28;19935;-67
2020/12/03 01:57:50;;;;;;;;;;;;;;;-3.42;100.00;100603.13;5091727;28;20018;-68
2020/12/03 02:00:17;;;;;;;;;;;;;;;-3.45;100.00;100589.94;5091754;28;20010;-67
2020/12/03 02:02:45;;;;;;;;;;;;;;;-3.48;100.00;100579.41;5091964;28;20425;-67
2020/12/03 02:05:12;;;;;;;;;;;;;;;-3.49;100.00;100580.31;5091356;28;19940;-67
2020/12/03 02:07:38;;;;;;;;;;;;;;;-3.46;100.00;100583.75;5091455;28;19924;-68
2020/12/03 02:10:04;;;;;;;;;;;;;;;-3.50;100.00;100581.22;5091626;28;19986;-67
2020/12/03 02:12:31;;;;;;;;;;;;;;;-3.51;100.00;100583.00;5091659;28;19955;-67
2020/12/03 02:14:57;;;;;;;;;;;;;;;-3.51;100.00;100579.47;5091601;28;20026;-67
2020/12/03 02:17:23;;;;;;;;;;;;;;;-3.50;100.00;100578.56;5091371;28;19928;-66
2020/12/03 02:19:54;;;;;;;;;;;;;;;-3.46;100.00;100572.25;5091636;28;20390;-67
2020/12/03 02:22:20;;;;;;;;;;;;;;;-3.44;100.00;100565.13;5091203;28;20317;-67
2020/12/03 02:24:46;;;;;;;;;;;;;;;-3.46;100.00;100551.91;5090411;28;19963;-67
2020/12/03 02:27:13;;;;;;;;;;;;;;;-3.46;100.00;100541.28;5091329;28;19928;-68
2020/12/03 02:29:38;;;;;;;;;;;;;;;-3.48;100.00;100535.16;5091384;28;19978;-67
2020/12/03 02:32:04;;;;;;;;;;;;;;;-3.45;100.00;100535.06;5091268;28;19924;-67
2020/12/03 02:34:30;;;;;;;;;;;;;;;-3.44;100.00;100523.53;5091374;28;19932;-67
2020/12/03 02:36:58;;;;;;;;;;;;;;;-3.40;100.00;100521.69;5091238;28;20001;-67
2020/12/03 02:39:24;;;;;;;;;;;;;;;-3.42;100.00;100520.84;5091354;28;19970;-67
2020/12/03 02:41:50;;;;;;;;;;;;;;;-3.48;100.00;100507.75;5094595;28;20011;-68
2020/12/03 02:44:16;;;;;;;;;;;;;;;-3.47;100.00;100504.19;5095475;28;19955;-67
2020/12/03 02:46:42;;;;;;;;;;;;;;;-3.48;100.00;100505.09;5095391;28;19928;-67
2020/12/03 02:49:09;;;;;;;;;;;;;;;-3.57;100.00;100503.53;5095541;28;20015;-68
2020/12/03 02:51:35;;;;;;;;;;;;;;;-3.61;100.00;100483.31;5095354;28;19924;-67
2020/12/03 02:54:02;;;;;;;;;;;;;;;-3.65;100.00;100479.84;5095315;28;19991;-67
2020/12/03 02:56:28;;;;;;;;;;;;;;;-3.69;100.00;100472.88;5095063;28;20015;-67
2020/12/03 02:58:53;;;;;;;;;;;;;;;-3.68;100.00;100479.09;5095428;28;19924;-67
2020/12/03 03:01:19;;;;;;;;;;;;;;;-3.70;100.00;100469.38;5093584;28;20431;-67
2020/12/03 03:03:45;;;;;;;;;;;;;;;-3.70;100.00;100472.03;5095244;28;19924;-67
2020/12/03 03:06:11;;;;;;;;;;;;;;;-3.68;100.00;100469.31;5094850;28;20343;-67
2020/12/03 03:08:37;;;;;;;;;;;;;;;-3.63;100.00;100467.44;5095198;28;19969;-67
2020/12/03 03:11:04;;;;;;;;;;;;;;;-3.63;100.00;100463.91;5095045;28;19927;-68
2020/12/03 03:13:29;;;;;;;;;;;;;;;-3.65;100.00;100465.72;5094825;28;20027;-68
2020/12/03 03:15:55;;;;;;;;;;;;;;;-3.64;100.00;100467.47;5094935;28;19928;-67
2020/12/03 03:18:21;;;;;;;;;;;;;;;-3.64;100.00;100468.34;5094437;28;19956;-67
2020/12/03 03:20:47;;;;;;;;;;;;;;;-3.67;100.00;100463.13;5094786;28;19977;-68
2020/12/03 03:23:14;;;;;;;;;;;;;;;-3.67;100.00;100457.81;5094767;28;20019;-67
2020/12/03 03:25:40;;;;;;;;;;;;;;;-3.68;100.00;100455.19;5094762;28;19924;-67
2020/12/03 03:28:06;;;;;;;;;;;;;;;-3.66;100.00;100456.91;5094437;28;19924;-67
2020/12/03 03:30:32;;;;;;;;;;;;;;;-3.65;100.00;100457.75;5094608;28;19963;-67
2020/12/03 03:32:58;;;;;;;;;;;;;;;-3.65;100.00;100461.28;5093337;28;19970;-68
2020/12/03 03:35:24;;;;;;;;;;;;;;;-3.59;100.00;100453.16;5094381;28;19993;-67
2020/12/03 03:37:49;;;;;;;;;;;;;;;-3.58;100.00;100456.66;5094303;28;19930;-68
2020/12/03 03:40:15;;;;;;;;;;;;;;;-3.55;100.00;100461.91;5094372;28;19966;-67
2020/12/03 03:42:42;;;;;;;;;;;;;;;-3.55;100.00;100460.13;5094384;28;19961;-67
2020/12/03 03:45:09;;;;;;;;;;;;;;;-3.50;100.00;100462.66;5093125;28;19924;-67
2020/12/03 03:47:35;;;;;;;;;;;;;;;-3.49;100.00;100455.56;5094061;28;19965;-67
2020/12/03 03:50:01;;;;;;;;;;;;;;;-3.50;100.00;100448.50;5093970;28;20625;-67
2020/12/03 03:52:27;;;;;;;;;;;;;;;-3.55;100.00;100449.50;5093319;28;19924;-67
2020/12/03 03:54:53;;;;;;;;;;;;;;;-3.55;100.00;100435.38;5094357;28;19928;-67
2020/12/03 03:57:19;;;;;;;;;;;;;;;-3.56;100.00;100433.63;5093888;28;20055;-68
2020/12/03 03:59:48;;;;;;;;;;;;;;;-3.54;100.00;100435.34;5094075;28;19982;-68
2020/12/03 04:02:15;;;;;;;;;;;;;;;-3.50;100.00;100424.63;5094006;28;20015;-68
2020/12/03 04:04:41;;;;;;;;;;;;;;;-3.50;100.00;100420.19;5094132;28;19959;-68
2020/12/03 04:07:07;;;;;;;;;;;;;;;-3.47;100.00;100416.59;5093634;28;19924;-68
2020/12/03 04:09:32;;;;;;;;;;;;;;;-3.50;100.00;100403.38;5093602;28;20389;-68
2020/12/03 04:11:58;;;;;;;;;;;;;;;-3.47;100.00;100406.84;5093809;28;19927;-68
2020/12/03 04:14:24;;;;;;;;;;;;;;;-3.48;100.00;100410.41;5093696;28;19931;-68
2020/12/03 04:16:50;;;;;;;;;;;;;;;-3.45;100.00;100401.47;5093643;28;19924;-68
2020/12/03 04:19:16;;;;;;;;;;;;;;;-3.43;100.00;100397.88;5093667;28;20019;-67
2020/12/03 04:21:42;;;;;;;;;;;;;;;-3.43;100.00;100394.34;5093697;28;19960;-67
2020/12/03 04:24:08;;;;;;;;;;;;;;;-3.43;100.00;100400.53;5093645;28;20306;-68
2020/12/03 04:26:33;;;;;;;;;;;;;;;-3.46;100.00;100397.97;5093282;28;19950;-67
2020/12/03 04:28:59;;;;;;;;;;;;;;;-3.47;100.00;100398.03;5093224;28;19924;-67
2020/12/03 04:31:25;;;;;;;;;;;;;;;-3.52;100.00;100387.50;5093359;28;19928;-68
2020/12/03 04:33:51;;;;;;;;;;;;;;;-3.54;100.00;100389.31;5093356;28;19924;-68
2020/12/03 04:36:17;;;;;;;;;;;;;;;-3.53;100.00;100399.03;5093225;28;19928;-68
2020/12/03 04:38:43;;;;;;;;;;;;;;;-3.50;100.00;100383.06;5093351;28;20041;-67
2020/12/03 04:41:09;;;;;;;;;;;;;;;-3.51;100.00;100378.66;5092765;28;19963;-70
2020/12/03 04:43:38;;;;;;;;;;;;;;;-3.49;100.00;100368.84;5093249;28;19924;-67
2020/12/03 04:46:06;;;;;;;;;;;;;;;-3.51;100.00;100368.03;5093109;28;19959;-68
2020/12/03 04:48:50;;;;;;;;;;;;;;;-3.54;100.00;100381.38;5092869;28;20008;-67
2020/12/03 04:51:27;;;;;;;;;;;;;;;-3.55;100.00;100372.53;5093004;28;20386;-68
2020/12/03 04:53:59;;;;;;;;;;;;;;;-3.54;100.00;100371.63;5093049;28;19967;-67
2020/12/03 04:56:28;;;;;;;;;;;;;;;-3.55;100.00;100367.25;5092774;28;19960;-68
2020/12/03 04:58:59;;;;;;;;;;;;;;;-3.53;100.00;100364.53;5092887;28;20432;-67
2020/12/03 05:01:57;;;;;;;;;;;;;;;-3.51;100.00;100364.50;5091587;28;20001;-67
2020/12/03 05:04:25;;;;;;;;;;;;;;;-3.50;100.00;100364.47;5092642;28;19967;-67
2020/12/03 05:06:57;;;;;;;;;;;;;;;-3.51;100.00;100368.03;5092250;28;19989;-67
2020/12/03 05:09:27;;;;;;;;;;;;;;;-3.48;100.00;100372.38;5092726;28;19960;-67
2020/12/03 05:11:55;;;;;;;;;;;;;;;-3.47;100.00;100366.16;5092913;28;19924;-67
2020/12/03 05:14:34;;;;;;;;;;;;;;;-3.45;100.00;100356.34;5092594;28;19971;-68
2020/12/03 05:17:12;;;;;;;;;;;;;;;-3.44;100.00;100353.66;5092238;28;19930;-67
2020/12/03 05:19:39;;;;;;;;;;;;;;;-3.45;100.00;100351.06;5092361;28;19962;-68
2020/12/03 05:22:11;;;;;;;;;;;;;;;-3.43;100.00;100347.44;5102693;28;20011;-68
2020/12/03 05:24:37;;;;;;;;;;;;;;;-3.43;100.00;100344.78;5092786;28;19970;-68
2020/12/03 05:27:03;;;;;;;;;;;;;;;-3.42;100.00;100335.91;5092159;28;20018;-68
2020/12/03 05:29:29;;;;;;;;;;;;;;;-3.42;100.00;100343.00;5094571;28;20376;-67
2020/12/03 05:31:55;;;;;;;;;;;;;;;-3.43;100.00;100347.44;5112507;28;20304;-68
2020/12/03 05:34:22;;;;;;;;;;;;;;;-3.39;100.00;100354.41;5105236;28;19932;-68
2020/12/03 05:36:58;;;;;;;;;;;;;;;-3.42;100.00;100346.53;5111324;28;20360;-67
2020/12/03 05:39:26;;;;;;;;;;;;;;;-3.36;100.00;100330.41;5100492;28;19971;-67
2020/12/03 05:41:53;;;;;;;;;;;;;;;-3.34;100.00;100338.34;5097885;28;20029;-67
2020/12/03 05:44:38;;;;;;;;;;;;;;;-3.33;100.00;100331.25;5091655;28;19981;-68
2020/12/03 05:47:06;;;;;;;;;;;;;;;-3.32;100.00;100331.19;5091852;28;19956;-68
2020/12/03 05:49:39;;;;;;;;;;;;;;;-3.30;100.00;100325.81;5091751;28;19990;-68
2020/12/03 05:52:13;;;;;;;;;;;;;;;-3.28;100.00;100324.00;5098601;28;19990;-68
2020/12/03 05:54:40;;;;;;;;;;;;;;;-3.30;100.00;100312.56;5106521;28;19924;-68
2020/12/03 05:57:19;;;;;;;;;;;;;;;-3.28;100.00;100314.25;5095834;28;19960;-68
2020/12/03 05:59:50;;;;;;;;;;;;;;;-3.28;100.00;100311.59;5100776;28;20408;-68
2020/12/03 06:02:19;;;;;;;;;;;;;;;-3.28;100.00;100308.94;5111853;28;20331;-68
2020/12/03 06:04:49;;;;;;;;;;;;;;;-3.28;100.00;100305.44;5111582;28;20392;-68
2020/12/03 06:07:25;;;;;;;;;;;;;;;-3.25;100.00;100306.19;5111748;28;19932;-68
2020/12/03 06:10:00;;;;;;;;;;;;;;;-3.24;100.00;100302.63;5102868;28;19928;-68
2020/12/03 06:12:33;;;;;;;;;;;;;;;-3.26;100.00;100304.47;5091673;28;20423;-67
2020/12/03 06:15:03;;;;;;;;;;;;;;;-3.27;100.00;100302.72;5094064;28;20336;-67
2020/12/03 06:17:39;;;;;;;;;;;;;;;-3.26;100.00;100303.56;5092625;28;19978;-67
2020/12/03 06:20:18;;;;;;;;;;;;;;;-3.23;100.00;100308.81;5091480;28;19985;-67
2020/12/03 06:22:52;;;;;;;;;;;;;;;-3.23;100.00;100306.16;5104055;28;19985;-67
2020/12/03 06:25:26;;;;;;;;;;;;;;;-3.26;100.00;100301.81;5088806;28;20428;-66
2020/12/03 06:28:11;;;;;;;;;;;;;;;-3.25;100.00;100307.97;5092434;28;20405;-66
2020/12/03 06:30:40;;;;;;;;;;;;;;;-3.24;100.00;100301.75;5094136;28;19963;-67
2020/12/03 06:33:24;;;;;;;;;;;;;;;-3.20;100.00;100301.59;5111628;28;19967;-67
2020/12/03 06:35:56;;;;;;;;;;;;;;;-3.23;100.00;100291.09;5111840;28;19924;-67
2020/12/03 06:38:27;;;;;;;;;;;;;;;-3.26;100.00;100291.19;5111389;28;19981;-67
2020/12/03 06:40:57;;;;;;;;;;;;;;;-3.29;100.00;100295.72;5110076;28;19941;-68
2020/12/03 06:43:26;;;;;;;;;;;;;;;-3.31;100.00;100293.13;5111676;28;19952;-67
2020/12/03 06:45:58;;;;;;;;;;;;;;;-3.29;100.00;100303.69;5111660;28;20052;-68
2020/12/03 06:48:41;;;;;;;;;;;;;;;-3.27;100.00;100292.09;5105731;28;20278;-67
2020/12/03 06:51:25;;;;;;;;;;;;;;;-3.27;100.00;100302.72;5070976;28;19929;-67
2020/12/03 06:54:01;;;;;;;;;;;;;;;-3.27;100.00;100297.41;5084330;28;19955;-67
2020/12/03 06:56:46;;;;;;;;;;;;;;;-3.24;100.00;100299.09;5088391;28;20019;-67
2020/12/03 06:59:25;;;;;;;;;;;;;;;-3.24;100.00;100291.13;5090771;28;19928;-69
2020/12/03 07:02:19;;;;;;;;;;;;;;;-3.23;100.00;100298.19;5091135;28;19970;-68
2020/12/03 07:05:00;;;;;;;;;;;;;;;-3.21;100.00;100293.69;5091457;28;19967;-68
2020/12/03 07:07:43;;;;;;;;;;;;;;;-3.21;100.00;100296.34;5090977;28;19924;-67
2020/12/03 07:10:24;;;;;;;;;;;;;;;-3.21;100.00;100291.91;5091278;28;19947;-68
2020/12/03 07:13:04;;;;;;;;;;;;;;;-3.21;100.00;100299.00;5089826;28;20452;-67
2020/12/03 07:15:44;;;;;;;;;;;;;;;-3.21;100.00;100291.91;5091277;28;19924;-67
2020/12/03 07:18:31;;;;;;;;;;;;;;;-3.14;100.00;100294.38;5090896;28;19925;-67
2020/12/03 07:21:15;;;;;;;;;;;;;;;-3.15;100.00;100287.31;5081681;28;19931;-67
2020/12/03 07:23:46;;;;;;;;;;;;;;;-3.14;100.00;100267.81;5091466;28;19924;-67
2020/12/03 07:26:23;;;;;;;;;;;;;;;-3.15;100.00;100282.00;5089490;28;20007;-68
2020/12/03 07:28:50;;;;;;;;;;;;;;;-3.13;100.00;100286.34;5094036;28;20416;-67
2020/12/03 07:31:22;;;;;;;;;;;;;;;-3.07;100.00;100267.56;5094217;28;20525;-68
2020/12/03 07:34:03;;;;;;;;;;;;;;;-3.06;100.00;100263.13;5094483;28;19982;-68
2020/12/03 07:36:41;;;;;;;;;;;;;;;-3.06;100.00;100258.69;5094503;28;20019;-68
2020/12/03 07:39:10;;;;;;;;;;;;;;;-3.02;100.00;100259.44;5094430;28;19974;-68
2020/12/03 07:41:40;;;;;;;;;;;;;;;-3.00;100.00;100254.97;5094668;28;19924;-68
2020/12/03 07:44:14;;;;;;;;;;;;;;;-2.99;100.00;100253.16;5087592;28;19979;-68
2020/12/03 07:46:41;;;;;;;;;;;;;;;-3.04;100.00;100238.25;5094779;28;19927;-68
2020/12/03 07:49:09;;;;;;;;;;;;;;;-3.02;100.00;100238.19;5108587;28;19924;-67
2020/12/03 07:51:35;;;;;;;;;;;;;;;-3.04;100.00;100242.69;5093868;28;19924;-68
2020/12/03 07:54:19;;;;;;;;;;;;;;;-3.05;100.00;100243.63;5096488;28;19986;-68
2020/12/03 07:56:46;;;;;;;;;;;;;;;-3.00;100.00;100235.50;5095229;28;19931;-69
2020/12/03 07:59:26;;;;;;;;;;;;;;;-3.05;100.00;100225.91;5114434;28;19927;-68
2020/12/03 08:01:53;;;;;;;;;;;;;;;-3.08;100.00;100227.78;5096269;28;19928;-68
2020/12/03 08:04:21;;;;;;;;;;;;;;;-3.12;100.00;100221.69;5092486;28;19959;-68
2020/12/03 08:06:51;;;;;;;;;;;;;;;-3.06;100.00;100215.31;5093311;28;19924;-67
2020/12/03 08:09:22;;;;;;;;;;;;;;;-3.05;100.00;100203.78;5095731;28;20640;-68
2020/12/03 08:11:49;;;;;;;;;;;;;;;-3.00;100.00;100217.78;5092882;28;19924;-68
2020/12/03 08:14:26;;;;;;;;;;;;;;;-2.94;100.00;100214.03;5092898;28;19977;-67
2020/12/03 08:16:52;;;;;;;;;;;;;;;-2.90;100.00;100216.56;5101718;28;20020;-68
2020/12/03 08:19:23;;;;;;;;;;;;;;;-2.82;100.00;100212.75;5100447;28;19981;-68
2020/12/03 08:21:49;;;;;;;;;;;;;;;-2.75;100.00;100209.00;5098472;28;19924;-68
2020/12/03 08:24:23;;;;;;;;;;;;;;;-2.71;100.00;100205.31;5113888;28;20018;-68
2020/12/03 08:26:49;;;;;;;;;;;;;;;-2.78;100.00;100204.66;5112176;28;20468;-68
2020/12/03 08:29:21;;;;;;;;;;;;;;;-2.84;100.00;100194.22;5109164;28;19924;-69
2020/12/03 08:31:47;;;;;;;;;;;;;;;-2.74;100.00;100192.09;5093226;28;19963;-68
2020/12/03 08:34:14;;;;;;;;;;;;;;;-2.73;100.00;100194.69;5110559;28;19924;-67
2020/12/03 08:36:40;;;;;;;;;;;;;;;-2.72;100.00;100192.94;5101593;28;20014;-67
2020/12/03 08:39:06;;;;;;;;;;;;;;;-2.65;100.00;100198.91;5105591;28;20031;-67
2020/12/03 08:41:32;;;;;;;;;;;;;;;-2.70;100.00;100197.28;5113603;28;20410;-67
2020/12/03 08:44:03;;;;;;;;;;;;;;;-2.67;100.00;100190.09;5098405;28;20395;-67
2020/12/03 08:46:31;;;;;;;;;;;;;;;-2.65;100.00;100188.28;5092797;28;19924;-67
2020/12/03 08:48:57;;;;;;;;;;;;;;;-2.64;100.00;100190.88;5099015;28;19949;-67
2020/12/03 08:51:24;;;;;;;;;;;;;;;-2.60;100.00;100184.53;5113147;28;19931;-67
2020/12/03 08:53:50;;;;;;;;;;;;;;;-2.63;100.00;100187.28;5097674;28;19932;-67
2020/12/03 08:56:25;;;;;;;;;;;;;;;-2.63;100.00;100179.31;5092155;28;19938;-67
2020/12/03 08:58:56;;;;;;;;;;;;;;;-2.60;100.00;100181.00;5096713;28;19924;-68
2020/12/03 09:01:23;;;;;;;;;;;;;;;-2.62;100.00;100189.03;5090051;28;20626;-67
2020/12/03 09:03:49;;;;;;;;;;;;;;;-2.62;100.00;100194.34;5091419;28;20353;-68
2020/12/03 09:06:15;;;;;;;;;;;;;;;-2.59;100.00;100190.69;5102675;28;19950;-67
2020/12/03 09:08:42;;;;;;;;;;;;;;;-2.58;100.00;100190.66;5094348;28;19928;-67
2020/12/03 09:11:08;;;;;;;;;;;;;;;-2.55;100.00;100193.22;5105551;28;20274;-68
2020/12/03 09:13:34;;;;;;;;;;;;;;;-2.55;100.00;100185.22;5112989;28;19931;-67
2020/12/03 09:16:01;;;;;;;;;;;;;;;-2.58;100.00;100177.38;5099012;28;19952;-68
2020/12/03 09:18:27;;;;;;;;;;;;;;;-2.50;100.00;100170.91;5092367;28;19964;-69
2020/12/03 09:20:53;;;;;;;;;;;;;;;-2.40;100.00;100169.66;5093780;28;20450;-68
2020/12/03 09:23:22;;;;;;;;;;;;;;;-2.27;100.00;100164.75;5092386;28;19981;-67
2020/12/03 09:25:48;;;;;;;;;;;;;;;-2.22;100.00;100152.13;5100681;28;19931;-67
2020/12/03 09:28:14;;;;;;;;;;;;;;;-2.14;100.00;100135.91;5091703;28;20443;-67
2020/12/03 09:30:44;;;;;;;;;;;;;;;-2.15;100.00;100118.19;5092160;28;19955;-67
2020/12/03 09:33:13;;;;;;;;;;;;;;;-2.14;100.00;100120.81;5092660;28;19939;-72
2020/12/03 09:35:40;;;;;;;;;;;;;;;-2.17;100.00;100109.44;5112723;28;19924;-72
2020/12/03 09:38:07;;;;;;;;;;;;;;;-2.17;100.00;100117.41;5111333;28;19924;-72
2020/12/03 09:40:33;;;;;;;;;;;;;;;-2.16;100.00;100121.78;5099914;28;20023;-72
2020/12/03 09:43:01;;;;;;;;;;;;;;;-2.15;100.00;100110.22;5112081;28;20392;-72
2020/12/03 09:45:31;;;;;;;;;;;;;;;-2.16;100.00;100105.81;5093662;28;19924;-72
2020/12/03 09:47:57;;;;;;;;;;;;;;;-2.13;100.00;100095.94;5110427;28;19923;-73
2020/12/03 09:50:23;;;;;;;;;;;;;;;-2.16;100.00;100085.44;5111614;28;19924;-72
2020/12/03 09:52:50;;;;;;;;;;;;;;;-2.08;100.00;100085.13;5095075;28;19954;-72
2020/12/03 09:55:16;;;;;;;;;;;;;;;-2.09;100.00;100086.06;5095900;28;19928;-74
2020/12/03 09:57:51;;;;;;;;;;;;;;;-2.06;100.00;100075.28;5110534;28;19969;-72
2020/12/03 10:00:20;;;;;;;;;;;;;;;-2.03;100.00;100086.69;5106649;28;19966;-72
2020/12/03 10:03:12;;;;;;;;;;;;;;;-2.01;100.00;100073.31;5097579;28;19924;-72
2020/12/03 10:05:44;;;;;;;;;;;;;;;-1.96;100.00;100073.16;5091723;28;19952;-72
2020/12/03 10:08:26;;;;;;;;;;;;;;;-1.90;100.00;100054.28;5085167;28;20038;-72
2020/12/03 10:11:00;;;;;;;;;;;;;;;-1.85;100.00;100053.16;5084262;28;21412;-72
2020/12/03 10:13:32;;;;;;;;;;;;;;;-1.88;100.00;100063.91;5093350;28;19955;-72
2020/12/03 10:16:03;;;;;;;;;;;;;;;-1.90;100.00;100060.47;5090153;28;19928;-72
2020/12/03 10:18:38;;;;;;;;;;;;;;;-1.99;100.00;100057.28;5086498;28;20018;-72
2020/12/03 10:21:05;;;;;;;;;;;;;;;-1.89;100.00;100061.31;5091625;28;19925;-72
2020/12/03 10:23:45;;;;;;;;;;;;;;;-1.80;100.00;100052.09;5084387;28;20007;-72
2020/12/03 10:26:16;;;;;;;;;;;;;;;-1.83;100.00;100061.09;5088496;28;19928;-72
2020/12/03 10:28:44;;;;;;;;;;;;;;;-1.73;100.00;100050.94;5089962;28;19931;-72
2020/12/03 10:31:11;;;;;;;;;;;;;;;-1.72;100.00;100034.88;5095240;28;19959;-72
2020/12/03 10:33:38;;;;;;;;;;;;;;;-1.69;100.00;100028.56;5093416;28;19959;-72
2020/12/03 10:36:08;;;;;;;;;;;;;;;-1.73;100.00;100019.84;5102422;28;20002;-72
2020/12/03 10:38:38;;;;;;;;;;;;;;;-1.82;100.00;100009.59;5097986;28;19924;-72
2020/12/03 10:41:05;;;;;;;;;;;;;;;-1.79;100.00;100013.91;5090030;28;19935;-72
2020/12/03 10:43:33;;;;;;;;;;;;;;;-1.77;100.00;100006.75;5091482;28;19968;-72
2020/12/03 10:46:01;;;;;;;;;;;;;;;-1.75;100.00;99995.09;5091256;28;20076;-72
2020/12/03 10:48:31;;;;;;;;;;;;;;;-1.65;100.00;100000.03;5090943;28;19924;-72
2020/12/03 10:50:58;;;;;;;;;;;;;;;-1.66;100.00;100006.28;5091149;28;19947;-73
2020/12/03 10:53:25;;;;;;;;;;;;;;;-1.64;100.00;99999.97;5091074;28;19932;-72
2020/12/03 10:55:58;;;;;;;;;;;;;;;-1.67;100.00;99986.81;5090007;28;19928;-73
2020/12/03 10:58:28;;;;;;;;;;;;;;;-1.69;100.00;99989.50;5091194;28;19928;-72
2020/12/03 11:00:54;;;;;;;;;;;;;;;-1.76;100.00;99981.88;5091089;28;19928;-73
2020/12/03 11:03:26;;;;;;;;;;;;;;;-1.79;100.00;99977.53;5094338;28;19963;-72
2020/12/03 11:05:53;;;;;;;;;;;;;;;-1.81;100.00;99979.38;5094833;28;19935;-72
2020/12/03 11:08:19;;;;;;;;;;;;;;;-1.85;100.00;99973.31;5103359;28;20116;-72
2020/12/03 11:10:45;;;;;;;;;;;;;;;-1.79;100.00;99966.00;5111387;28;20455;-71
2020/12/03 11:13:12;;;;;;;;;;;;;;;-1.79;100.00;99969.56;5107943;28;19942;-71
2020/12/03 11:15:38;;;;;;;;;;;;;;;-1.80;100.00;99964.28;5096065;28;19924;-72
2020/12/03 11:18:04;;;;;;;;;;;;;;;-1.77;100.00;99951.72;5099548;28;19977;-72
2020/12/03 11:20:32;;;;;;;;;;;;;;;-1.69;100.00;99951.41;5094962;28;20027;-72
2020/12/03 11:23:01;;;;;;;;;;;;;;;-1.61;100.00;99941.28;5094502;28;20368;-72
2020/12/03 11:25:28;;;;;;;;;;;;;;;-1.57;100.00;99936.69;5094502;28;19959;-72
2020/12/03 11:27:55;;;;;;;;;;;;;;;-1.63;100.00;99928.97;5114308;28;19969;-72
2020/12/03 11:30:23;;;;;;;;;;;;;;;-1.55;100.00;99922.38;5114867;28;19977;-72
2020/12/03 11:32:50;;;;;;;;;;;;;;;-1.45;100.00;99921.97;5105218;28;20317;-71
2020/12/03 11:35:23;;;;;;;;;;;;;;;-1.54;100.00;99916.13;5114882;28;19924;-71
2020/12/03 11:37:50;;;;;;;;;;;;;;;-1.49;100.00;99912.41;5095138;28;20298;-72
2020/12/03 11:40:21;;;;;;;;;;;;;;;-1.34;100.00;99906.38;5094175;28;20007;-71
2020/12/03 11:42:56;;;;;;;;;;;;;;;-1.28;100.00;99903.44;5113547;28;20014;-72
2020/12/03 11:45:49;;;;;;;;;;;;;;;-1.39;100.00;99903.94;5100352;28;19930;-72
2020/12/03 11:48:28;;;;;;;;;;;;;;;-1.38;100.00;99903.00;5096815;28;19936;-71
2020/12/03 11:50:54;;;;;;;;;;;;;;;-1.42;100.00;99904.06;5106940;28;20457;-71
2020/12/03 11:53:20;;;;;;;;;;;;;;;-1.35;100.00;99892.22;5114512;28;19959;-71
2020/12/03 11:55:47;;;;;;;;;;;;;;;-1.36;100.00;99894.94;5103328;28;19932;-71
2020/12/03 11:58:13;;;;;;;;;;;;;;;-1.36;100.00;99886.97;5093600;28;20064;-71
2020/12/03 12:00:39;;;;;;;;;;;;;;;-1.31;100.00;99884.06;5094088;28;19924;-71
2020/12/03 12:03:07;;;;;;;;;;;;;;;-1.39;100.00;99887.97;5093479;28;19947;-72
2020/12/03 12:05:44;;;;;;;;;;;;;;;-1.40;100.00;99885.38;5094075;28;19928;-71
2020/12/03 12:08:18;;;;;;;;;;;;;;;-1.36;100.00;99878.97;5094950;28;19931;-71
2020/12/03 12:10:49;;;;;;;;;;;;;;;-1.36;100.00;99878.97;5103455;28;19924;-71
2020/12/03 12:13:16;;;;;;;;;;;;;;;-1.38;100.00;99878.16;5094525;28;19924;-71
2020/12/03 12:15:42;;;;;;;;;;;;;;;-1.37;100.00;99870.09;5112487;28;19969;-71
2020/12/03 12:18:08;;;;;;;;;;;;;;;-1.26;100.00;99864.28;5100185;28;19924;-71
2020/12/03 12:20:33;;;;;;;;;;;;;;;-1.28;100.00;99863.50;5093565;28;19982;-70
2020/12/03 12:22:59;;;;;;;;;;;;;;;-1.30;100.00;99852.03;5094789;28;19924;-70
2020/12/03 12:25:25;;;;;;;;;;;;;;;-1.27;100.00;99857.25;5081124;28;20275;-71
2020/12/03 12:27:51;;;;;;;;;;;;;;;-1.22;100.00;99849.88;5097239;28;19924;-70
2020/12/03 12:30:17;;;;;;;;;;;;;;;-1.14;100.00;99846.03;5093329;28;19924;-71
2020/12/03 12:32:43;;;;;;;;;;;;;;;-1.20;100.00;99845.38;5093540;28;19967;-70
2020/12/03 12:35:09;;;;;;;;;;;;;;;-1.23;100.00;99833.97;5100331;28;19976;-71
2020/12/03 12:37:35;;;;;;;;;;;;;;;-1.26;100.00;99837.66;5085540;28;20328;-71